sensor_id;sensor_type;location;lat;lon;timestamp;P1;durP1;ratioP1;P2;durP2;ratioP2
20290;SDS011;10304;51.074;13.754;2023-10-09T00:02:11;5.07;;;2.85;;
20290;SDS011;10304;51.074;13.754;2023-10-09T00:04:38;6.50;;;3.05;;
20290;SDS011;10304;51.074;13.754;2023-10-09T00:07:09;5.75;;;2.75;;
20290;SDS011;10304;51.074;13.754;2023-10-09T00:09:37;7.07;;;3.20;;
20290;SDS011;10304;51.074;13.754;2023-10-09T00:12:17;5.30;;;2.85;;
20290;SDS011;10304;51.074;13.754;2023-10-09T00:14:55;6.55;;;2.72;;
20290;SDS011;10304;51.074;13.754;2023-10-09T00:17:22;6.15;;;2.70;;
20290;SDS011;10304;51.074;13.754;2023-10-09T00:19:50;6.50;;;2.75;;
20290;SDS011;10304;51.074;13.754;2023-10-09T00:22:18;9.70;;;2.97;;
20290;SDS011;10304;51.074;13.754;2023-10-09T00:24:54;6.55;;;3.03;;
20290;SDS011;10304;51.074;13.754;2023-10-09T00:27:38;5.85;;;2.95;;
20290;SDS011;10304;51.074;13.754;2023-10-09T00:30:10;9.27;;;3.10;;
20290;SDS011;10304;51.074;13.754;2023-10-09T00:32:41;5.45;;;2.50;;
20290;SDS011;10304;51.074;13.754;2023-10-09T00:35:32;4.38;;;2.72;;
20290;SDS011;10304;51.074;13.754;2023-10-09T00:38:03;8.95;;;2.60;;
20290;SDS011;10304;51.074;13.754;2023-10-09T00:40:47;5.32;;;2.60;;
20290;SDS011;10304;51.074;13.754;2023-10-09T00:43:22;6.78;;;3.13;;
20290;SDS011;10304;51.074;13.754;2023-10-09T00:45:56;5.93;;;2.50;;
20290;SDS011;10304;51.074;13.754;2023-10-09T00:48:38;6.93;;;2.53;;
20290;SDS011;10304;51.074;13.754;2023-10-09T00:51:06;6.53;;;2.92;;
20290;SDS011;10304;51.074;13.754;2023-10-09T00:53:45;6.68;;;2.70;;
20290;SDS011;10304;51.074;13.754;2023-10-09T00:56:18;4.22;;;2.67;;
20290;SDS011;10304;51.074;13.754;2023-10-09T00:58:54;6.90;;;2.90;;
20290;SDS011;10304;51.074;13.754;2023-10-09T01:01:38;4.68;;;2.60;;
20290;SDS011;10304;51.074;13.754;2023-10-09T01:04:06;7.97;;;3.17;;
20290;SDS011;10304;51.074;13.754;2023-10-09T01:06:45;4.68;;;2.65;;
20290;SDS011;10304;51.074;13.754;2023-10-09T01:09:30;4.53;;;2.42;;
20290;SDS011;10304;51.074;13.754;2023-10-09T01:12:04;5.03;;;2.63;;
20290;SDS011;10304;51.074;13.754;2023-10-09T01:14:31;5.95;;;2.97;;
20290;SDS011;10304;51.074;13.754;2023-10-09T01:17:07;5.28;;;2.67;;
20290;SDS011;10304;51.074;13.754;2023-10-09T01:19:35;6.38;;;2.95;;
20290;SDS011;10304;51.074;13.754;2023-10-09T01:22:02;5.00;;;2.70;;
20290;SDS011;10304;51.074;13.754;2023-10-09T01:24:42;6.50;;;2.90;;
20290;SDS011;10304;51.074;13.754;2023-10-09T01:27:10;6.07;;;2.80;;
20290;SDS011;10304;51.074;13.754;2023-10-09T01:29:43;5.85;;;2.70;;
20290;SDS011;10304;51.074;13.754;2023-10-09T01:32:12;4.65;;;2.72;;
20290;SDS011;10304;51.074;13.754;2023-10-09T01:34:46;5.88;;;2.83;;
20290;SDS011;10304;51.074;13.754;2023-10-09T01:37:17;3.10;;;2.15;;
20290;SDS011;10304;51.074;13.754;2023-10-09T01:39:49;4.63;;;2.80;;
20290;SDS011;10304;51.074;13.754;2023-10-09T01:42:18;4.68;;;2.88;;
20290;SDS011;10304;51.074;13.754;2023-10-09T01:45:06;6.97;;;2.58;;
20290;SDS011;10304;51.074;13.754;2023-10-09T01:47:53;5.60;;;3.38;;
20290;SDS011;10304;51.074;13.754;2023-10-09T01:50:21;4.80;;;2.80;;
20290;SDS011;10304;51.074;13.754;2023-10-09T01:52:51;5.28;;;3.17;;
20290;SDS011;10304;51.074;13.754;2023-10-09T01:55:18;5.03;;;3.03;;
20290;SDS011;10304;51.074;13.754;2023-10-09T01:57:55;4.80;;;3.03;;
20290;SDS011;10304;51.074;13.754;2023-10-09T02:00:32;4.68;;;2.70;;
20290;SDS011;10304;51.074;13.754;2023-10-09T02:03:02;5.18;;;3.20;;
20290;SDS011;10304;51.074;13.754;2023-10-09T02:05:32;7.57;;;3.60;;
20290;SDS011;10304;51.074;13.754;2023-10-09T02:08:03;4.55;;;3.50;;
20290;SDS011;10304;51.074;13.754;2023-10-09T02:10:31;5.85;;;3.75;;
20290;SDS011;10304;51.074;13.754;2023-10-09T02:12:59;7.55;;;3.67;;
20290;SDS011;10304;51.074;13.754;2023-10-09T02:15:34;4.95;;;3.20;;
20290;SDS011;10304;51.074;13.754;2023-10-09T02:18:13;5.25;;;3.33;;
20290;SDS011;10304;51.074;13.754;2023-10-09T02:21:15;6.30;;;3.75;;
20290;SDS011;10304;51.074;13.754;2023-10-09T02:23:41;4.70;;;3.10;;
20290;SDS011;10304;51.074;13.754;2023-10-09T02:26:11;5.75;;;3.58;;
20290;SDS011;10304;51.074;13.754;2023-10-09T02:28:46;5.95;;;3.20;;
20290;SDS011;10304;51.074;13.754;2023-10-09T02:31:26;5.72;;;3.38;;
20290;SDS011;10304;51.074;13.754;2023-10-09T02:34:07;5.45;;;3.20;;
20290;SDS011;10304;51.074;13.754;2023-10-09T02:36:34;5.15;;;3.10;;
20290;SDS011;10304;51.074;13.754;2023-10-09T02:39:04;4.78;;;3.22;;
20290;SDS011;10304;51.074;13.754;2023-10-09T02:41:32;4.20;;;3.20;;
20290;SDS011;10304;51.074;13.754;2023-10-09T02:44:01;5.93;;;3.35;;
20290;SDS011;10304;51.074;13.754;2023-10-09T02:46:38;5.72;;;3.28;;
20290;SDS011;10304;51.074;13.754;2023-10-09T02:49:06;5.53;;;3.22;;
20290;SDS011;10304;51.074;13.754;2023-10-09T02:51:36;4.95;;;3.10;;
20290;SDS011;10304;51.074;13.754;2023-10-09T02:54:14;6.20;;;3.10;;
20290;SDS011;10304;51.074;13.754;2023-10-09T02:56:50;8.20;;;4.00;;
20290;SDS011;10304;51.074;13.754;2023-10-09T02:59:21;5.32;;;3.13;;
20290;SDS011;10304;51.074;13.754;2023-10-09T03:01:48;5.10;;;3.17;;
20290;SDS011;10304;51.074;13.754;2023-10-09T03:04:18;7.22;;;3.22;;
20290;SDS011;10304;51.074;13.754;2023-10-09T03:06:45;4.15;;;3.17;;
20290;SDS011;10304;51.074;13.754;2023-10-09T03:09:19;4.38;;;3.33;;
20290;SDS011;10304;51.074;13.754;2023-10-09T03:12:03;3.42;;;2.88;;
20290;SDS011;10304;51.074;13.754;2023-10-09T03:14:32;6.20;;;3.30;;
20290;SDS011;10304;51.074;13.754;2023-10-09T03:17:02;5.85;;;3.35;;
20290;SDS011;10304;51.074;13.754;2023-10-09T03:19:29;4.78;;;3.25;;
20290;SDS011;10304;51.074;13.754;2023-10-09T03:22:04;6.28;;;3.28;;
20290;SDS011;10304;51.074;13.754;2023-10-09T03:24:40;6.22;;;3.60;;
20290;SDS011;10304;51.074;13.754;2023-10-09T03:27:16;5.68;;;3.85;;
20290;SDS011;10304;51.074;13.754;2023-10-09T03:29:43;7.00;;;3.95;;
20290;SDS011;10304;51.074;13.754;2023-10-09T03:32:16;5.63;;;3.90;;
20290;SDS011;10304;51.074;13.754;2023-10-09T03:34:43;5.20;;;4.00;;
20290;SDS011;10304;51.074;13.754;2023-10-09T03:37:10;6.05;;;4.40;;
20290;SDS011;10304;51.074;13.754;2023-10-09T03:39:48;6.63;;;4.22;;
20290;SDS011;10304;51.074;13.754;2023-10-09T03:42:17;5.63;;;3.88;;
20290;SDS011;10304;51.074;13.754;2023-10-09T03:44:49;6.15;;;4.20;;
20290;SDS011;10304;51.074;13.754;2023-10-09T03:47:20;5.88;;;4.28;;
20290;SDS011;10304;51.074;13.754;2023-10-09T03:49:49;6.35;;;4.60;;
20290;SDS011;10304;51.074;13.754;2023-10-09T03:52:22;6.57;;;4.75;;
20290;SDS011;10304;51.074;13.754;2023-10-09T03:54:52;7.07;;;5.15;;
20290;SDS011;10304;51.074;13.754;2023-10-09T03:57:21;6.80;;;5.07;;
20290;SDS011;10304;51.074;13.754;2023-10-09T03:59:50;9.52;;;5.00;;
20290;SDS011;10304;51.074;13.754;2023-10-09T04:02:18;6.45;;;5.20;;
20290;SDS011;10304;51.074;13.754;2023-10-09T04:04:50;8.00;;;5.25;;
20290;SDS011;10304;51.074;13.754;2023-10-09T04:07:18;7.95;;;5.40;;
20290;SDS011;10304;51.074;13.754;2023-10-09T04:09:48;6.82;;;5.47;;
20290;SDS011;10304;51.074;13.754;2023-10-09T04:12:20;7.45;;;6.05;;
20290;SDS011;10304;51.074;13.754;2023-10-09T04:14:48;8.43;;;5.95;;
20290;SDS011;10304;51.074;13.754;2023-10-09T04:17:21;7.75;;;6.50;;
20290;SDS011;10304;51.074;13.754;2023-10-09T04:19:51;8.27;;;6.20;;
20290;SDS011;10304;51.074;13.754;2023-10-09T04:22:37;7.93;;;6.25;;
20290;SDS011;10304;51.074;13.754;2023-10-09T04:25:23;8.10;;;6.60;;
20290;SDS011;10304;51.074;13.754;2023-10-09T04:27:56;9.43;;;7.00;;
20290;SDS011;10304;51.074;13.754;2023-10-09T04:30:46;10.55;;;8.13;;
20290;SDS011;10304;51.074;13.754;2023-10-09T04:33:14;12.25;;;9.18;;
20290;SDS011;10304;51.074;13.754;2023-10-09T04:36:10;18.83;;;15.07;;
20290;SDS011;10304;51.074;13.754;2023-10-09T04:38:53;71.57;;;45.78;;
20290;SDS011;10304;51.074;13.754;2023-10-09T04:41:29;22.60;;;16.77;;
20290;SDS011;10304;51.074;13.754;2023-10-09T04:44:19;13.63;;;11.05;;
20290;SDS011;10304;51.074;13.754;2023-10-09T04:46:51;12.70;;;9.23;;
20290;SDS011;10304;51.074;13.754;2023-10-09T04:49:40;55.20;;;32.70;;
20290;SDS011;10304;51.074;13.754;2023-10-09T04:52:26;230.57;;;127.07;;
20290;SDS011;10304;51.074;13.754;2023-10-09T04:55:00;236.30;;;109.47;;
20290;SDS011;10304;51.074;13.754;2023-10-09T04:57:41;101.10;;;49.17;;
20290;SDS011;10304;51.074;13.754;2023-10-09T05:00:19;11.55;;;7.40;;
20290;SDS011;10304;51.074;13.754;2023-10-09T05:03:20;8.05;;;6.75;;
20290;SDS011;10304;51.074;13.754;2023-10-09T05:06:27;11.52;;;6.80;;
20290;SDS011;10304;51.074;13.754;2023-10-09T05:09:26;11.60;;;7.72;;
20290;SDS011;10304;51.074;13.754;2023-10-09T05:12:13;14.32;;;8.15;;
20290;SDS011;10304;51.074;13.754;2023-10-09T05:14:42;8.90;;;7.05;;
20290;SDS011;10304;51.074;13.754;2023-10-09T05:17:29;9.32;;;6.65;;
20290;SDS011;10304;51.074;13.754;2023-10-09T05:20:00;10.98;;;8.18;;
20290;SDS011;10304;51.074;13.754;2023-10-09T05:22:46;10.82;;;8.27;;
20290;SDS011;10304;51.074;13.754;2023-10-09T05:25:41;9.73;;;7.85;;
20290;SDS011;10304;51.074;13.754;2023-10-09T05:28:19;11.07;;;8.65;;
20290;SDS011;10304;51.074;13.754;2023-10-09T05:30:58;10.52;;;8.05;;
20290;SDS011;10304;51.074;13.754;2023-10-09T05:33:37;14.88;;;8.93;;
20290;SDS011;10304;51.074;13.754;2023-10-09T05:36:05;11.77;;;8.10;;
20290;SDS011;10304;51.074;13.754;2023-10-09T05:38:53;14.05;;;8.77;;
20290;SDS011;10304;51.074;13.754;2023-10-09T05:41:45;12.85;;;8.45;;
20290;SDS011;10304;51.074;13.754;2023-10-09T05:44:14;9.50;;;7.82;;
20290;SDS011;10304;51.074;13.754;2023-10-09T05:47:02;15.55;;;8.70;;
20290;SDS011;10304;51.074;13.754;2023-10-09T05:49:49;9.98;;;8.02;;
20290;SDS011;10304;51.074;13.754;2023-10-09T05:52:51;11.57;;;9.27;;
20290;SDS011;10304;51.074;13.754;2023-10-09T05:55:19;10.73;;;7.82;;
20290;SDS011;10304;51.074;13.754;2023-10-09T05:58:05;13.60;;;8.50;;
20290;SDS011;10304;51.074;13.754;2023-10-09T06:00:53;12.00;;;9.13;;
20290;SDS011;10304;51.074;13.754;2023-10-09T06:03:55;12.82;;;8.73;;
20290;SDS011;10304;51.074;13.754;2023-10-09T06:06:31;14.52;;;8.95;;
20290;SDS011;10304;51.074;13.754;2023-10-09T06:09:06;11.48;;;9.13;;
20290;SDS011;10304;51.074;13.754;2023-10-09T06:11:49;11.07;;;8.68;;
20290;SDS011;10304;51.074;13.754;2023-10-09T06:14:24;11.90;;;10.00;;
20290;SDS011;10304;51.074;13.754;2023-10-09T06:17:09;13.68;;;9.23;;
20290;SDS011;10304;51.074;13.754;2023-10-09T06:19:58;12.23;;;9.88;;
20290;SDS011;10304;51.074;13.754;2023-10-09T06:22:46;12.07;;;10.52;;
20290;SDS011;10304;51.074;13.754;2023-10-09T06:25:28;16.58;;;10.73;;
20290;SDS011;10304;51.074;13.754;2023-10-09T06:27:59;14.23;;;10.25;;
20290;SDS011;10304;51.074;13.754;2023-10-09T06:30:34;15.20;;;10.20;;
20290;SDS011;10304;51.074;13.754;2023-10-09T06:33:02;17.17;;;10.95;;
20290;SDS011;10304;51.074;13.754;2023-10-09T06:35:58;15.32;;;11.38;;
20290;SDS011;10304;51.074;13.754;2023-10-09T06:38:34;14.45;;;10.63;;
20290;SDS011;10304;51.074;13.754;2023-10-09T06:41:18;15.95;;;10.98;;
20290;SDS011;10304;51.074;13.754;2023-10-09T06:44:01;15.48;;;10.65;;
20290;SDS011;10304;51.074;13.754;2023-10-09T06:46:33;18.30;;;11.95;;
20290;SDS011;10304;51.074;13.754;2023-10-09T06:49:10;18.13;;;11.55;;
20290;SDS011;10304;51.074;13.754;2023-10-09T06:51:58;13.55;;;10.80;;
20290;SDS011;10304;51.074;13.754;2023-10-09T06:54:51;16.65;;;11.18;;
20290;SDS011;10304;51.074;13.754;2023-10-09T06:57:30;14.88;;;11.63;;
20290;SDS011;10304;51.074;13.754;2023-10-09T07:00:10;15.45;;;10.80;;
20290;SDS011;10304;51.074;13.754;2023-10-09T07:02:56;17.60;;;11.50;;
20290;SDS011;10304;51.074;13.754;2023-10-09T07:05:39;17.70;;;11.98;;
20290;SDS011;10304;51.074;13.754;2023-10-09T07:08:27;17.95;;;11.98;;
20290;SDS011;10304;51.074;13.754;2023-10-09T07:11:05;14.25;;;11.10;;
20290;SDS011;10304;51.074;13.754;2023-10-09T07:13:53;14.60;;;11.23;;
20290;SDS011;10304;51.074;13.754;2023-10-09T07:16:22;16.65;;;11.07;;
20290;SDS011;10304;51.074;13.754;2023-10-09T07:19:05;20.30;;;12.85;;
20290;SDS011;10304;51.074;13.754;2023-10-09T07:21:51;18.55;;;11.68;;
20290;SDS011;10304;51.074;13.754;2023-10-09T07:24:20;17.40;;;12.27;;
20290;SDS011;10304;51.074;13.754;2023-10-09T07:27:04;15.20;;;11.52;;
20290;SDS011;10304;51.074;13.754;2023-10-09T07:29:36;15.38;;;12.18;;
20290;SDS011;10304;51.074;13.754;2023-10-09T07:32:15;14.43;;;11.90;;
20290;SDS011;10304;51.074;13.754;2023-10-09T07:34:50;16.40;;;12.15;;
20290;SDS011;10304;51.074;13.754;2023-10-09T07:37:23;17.02;;;12.95;;
20290;SDS011;10304;51.074;13.754;2023-10-09T07:40:01;17.13;;;12.82;;
20290;SDS011;10304;51.074;13.754;2023-10-09T07:42:34;20.65;;;13.57;;
20290;SDS011;10304;51.074;13.754;2023-10-09T07:45:07;20.88;;;14.05;;
20290;SDS011;10304;51.074;13.754;2023-10-09T07:47:47;18.48;;;13.40;;
20290;SDS011;10304;51.074;13.754;2023-10-09T07:50:37;16.23;;;12.35;;
20290;SDS011;10304;51.074;13.754;2023-10-09T07:53:14;18.42;;;13.07;;
20290;SDS011;10304;51.074;13.754;2023-10-09T07:56:07;17.65;;;12.85;;
20290;SDS011;10304;51.074;13.754;2023-10-09T07:58:38;17.80;;;13.27;;
20290;SDS011;10304;51.074;13.754;2023-10-09T08:01:15;16.08;;;11.65;;
20290;SDS011;10304;51.074;13.754;2023-10-09T08:03:43;19.63;;;13.43;;
20290;SDS011;10304;51.074;13.754;2023-10-09T08:06:15;16.98;;;13.13;;
20290;SDS011;10304;51.074;13.754;2023-10-09T08:09:37;16.45;;;12.35;;
20290;SDS011;10304;51.074;13.754;2023-10-09T08:12:16;18.73;;;13.63;;
20290;SDS011;10304;51.074;13.754;2023-10-09T08:15:04;19.67;;;14.00;;
20290;SDS011;10304;51.074;13.754;2023-10-09T08:18:04;18.25;;;13.73;;
20290;SDS011;10304;51.074;13.754;2023-10-09T08:20:31;20.27;;;13.65;;
20290;SDS011;10304;51.074;13.754;2023-10-09T08:23:23;16.58;;;12.85;;
20290;SDS011;10304;51.074;13.754;2023-10-09T08:26:09;17.58;;;13.32;;
20290;SDS011;10304;51.074;13.754;2023-10-09T08:28:42;18.10;;;13.73;;
20290;SDS011;10304;51.074;13.754;2023-10-09T08:31:13;22.45;;;14.40;;
20290;SDS011;10304;51.074;13.754;2023-10-09T08:34:01;19.48;;;14.57;;
20290;SDS011;10304;51.074;13.754;2023-10-09T08:36:31;19.15;;;13.57;;
20290;SDS011;10304;51.074;13.754;2023-10-09T08:39:09;16.83;;;12.35;;
20290;SDS011;10304;51.074;13.754;2023-10-09T08:41:53;18.40;;;12.18;;
20290;SDS011;10304;51.074;13.754;2023-10-09T08:44:30;18.52;;;12.68;;
20290;SDS011;10304;51.074;13.754;2023-10-09T08:46:59;15.52;;;11.98;;
20290;SDS011;10304;51.074;13.754;2023-10-09T08:49:26;16.67;;;12.80;;
20290;SDS011;10304;51.074;13.754;2023-10-09T08:51:54;17.23;;;12.90;;
20290;SDS011;10304;51.074;13.754;2023-10-09T08:54:22;18.95;;;12.90;;
20290;SDS011;10304;51.074;13.754;2023-10-09T08:56:49;19.50;;;13.57;;
20290;SDS011;10304;51.074;13.754;2023-10-09T08:59:20;18.23;;;13.40;;
20290;SDS011;10304;51.074;13.754;2023-10-09T09:01:47;20.30;;;14.43;;
20290;SDS011;10304;51.074;13.754;2023-10-09T09:07:28;21.75;;;14.25;;
20290;SDS011;10304;51.074;13.754;2023-10-09T09:09:58;20.13;;;13.40;;
20290;SDS011;10304;51.074;13.754;2023-10-09T09:12:44;24.98;;;14.90;;
20290;SDS011;10304;51.074;13.754;2023-10-09T09:15:15;25.50;;;15.93;;
20290;SDS011;10304;51.074;13.754;2023-10-09T09:17:46;23.05;;;15.02;;
20290;SDS011;10304;51.074;13.754;2023-10-09T09:20:19;26.42;;;15.57;;
20290;SDS011;10304;51.074;13.754;2023-10-09T09:22:55;23.58;;;15.32;;
20290;SDS011;10304;51.074;13.754;2023-10-09T09:25:39;24.42;;;16.15;;
20290;SDS011;10304;51.074;13.754;2023-10-09T09:28:24;28.48;;;16.33;;
20290;SDS011;10304;51.074;13.754;2023-10-09T09:30:53;24.00;;;15.57;;
20290;SDS011;10304;51.074;13.754;2023-10-09T09:33:23;23.92;;;14.75;;
20290;SDS011;10304;51.074;13.754;2023-10-09T09:36:00;23.08;;;14.23;;
20290;SDS011;10304;51.074;13.754;2023-10-09T09:38:32;21.35;;;13.82;;
20290;SDS011;10304;51.074;13.754;2023-10-09T09:41:08;26.13;;;15.50;;
20290;SDS011;10304;51.074;13.754;2023-10-09T09:43:38;25.20;;;14.57;;
20290;SDS011;10304;51.074;13.754;2023-10-09T09:46:07;22.65;;;14.15;;
20290;SDS011;10304;51.074;13.754;2023-10-09T09:48:38;25.23;;;14.52;;
20290;SDS011;10304;51.074;13.754;2023-10-09T09:51:14;25.48;;;14.65;;
20290;SDS011;10304;51.074;13.754;2023-10-09T09:53:45;26.55;;;14.23;;
20290;SDS011;10304;51.074;13.754;2023-10-09T09:56:17;18.33;;;12.25;;
20290;SDS011;10304;51.074;13.754;2023-10-09T09:58:51;20.88;;;12.05;;
20290;SDS011;10304;51.074;13.754;2023-10-09T10:01:25;19.45;;;12.52;;
20290;SDS011;10304;51.074;13.754;2023-10-09T10:04:11;19.52;;;12.00;;
20290;SDS011;10304;51.074;13.754;2023-10-09T10:06:46;16.55;;;11.30;;
20290;SDS011;10304;51.074;13.754;2023-10-09T10:09:35;18.40;;;11.40;;
20290;SDS011;10304;51.074;13.754;2023-10-09T10:12:06;19.30;;;11.35;;
20290;SDS011;10304;51.074;13.754;2023-10-09T10:14:54;18.20;;;11.60;;
20290;SDS011;10304;51.074;13.754;2023-10-09T10:20:25;15.80;;;10.05;;
20290;SDS011;10304;51.074;13.754;2023-10-09T10:25:46;14.35;;;9.63;;
20290;SDS011;10304;51.074;13.754;2023-10-09T10:28:22;15.77;;;9.70;;
20290;SDS011;10304;51.074;13.754;2023-10-09T10:31:09;17.05;;;8.55;;
20290;SDS011;10304;51.074;13.754;2023-10-09T10:36:22;13.18;;;8.68;;
20290;SDS011;10304;51.074;13.754;2023-10-09T10:39:06;13.05;;;8.02;;
20290;SDS011;10304;51.074;13.754;2023-10-09T10:41:38;12.27;;;8.40;;
20290;SDS011;10304;51.074;13.754;2023-10-09T10:47:09;14.07;;;9.23;;
20290;SDS011;10304;51.074;13.754;2023-10-09T10:49:51;16.00;;;9.95;;
20290;SDS011;10304;51.074;13.754;2023-10-09T10:52:25;17.42;;;10.15;;
20290;SDS011;10304;51.074;13.754;2023-10-09T10:55:09;17.75;;;11.07;;
20290;SDS011;10304;51.074;13.754;2023-10-09T10:57:57;18.35;;;10.93;;
20290;SDS011;10304;51.074;13.754;2023-10-09T11:00:28;16.23;;;10.40;;
20290;SDS011;10304;51.074;13.754;2023-10-09T11:03:17;17.80;;;11.57;;
20290;SDS011;10304;51.074;13.754;2023-10-09T11:05:50;17.02;;;11.05;;
20290;SDS011;10304;51.074;13.754;2023-10-09T11:08:18;17.00;;;11.07;;
20290;SDS011;10304;51.074;13.754;2023-10-09T11:10:50;18.67;;;10.88;;
20290;SDS011;10304;51.074;13.754;2023-10-09T11:13:21;20.20;;;12.00;;
20290;SDS011;10304;51.074;13.754;2023-10-09T11:15:58;17.35;;;10.88;;
20290;SDS011;10304;51.074;13.754;2023-10-09T11:18:44;18.05;;;11.43;;
20290;SDS011;10304;51.074;13.754;2023-10-09T11:21:14;19.08;;;10.90;;
20290;SDS011;10304;51.074;13.754;2023-10-09T11:23:42;17.15;;;10.45;;
20290;SDS011;10304;51.074;13.754;2023-10-09T11:26:18;14.18;;;9.88;;
20290;SDS011;10304;51.074;13.754;2023-10-09T11:34:33;15.15;;;9.85;;
20290;SDS011;10304;51.074;13.754;2023-10-09T11:39:37;19.85;;;10.73;;
20290;SDS011;10304;51.074;13.754;2023-10-09T11:42:19;18.23;;;10.82;;
20290;SDS011;10304;51.074;13.754;2023-10-09T11:45:25;20.40;;;12.52;;
20290;SDS011;10304;51.074;13.754;2023-10-09T11:47:56;20.90;;;13.02;;
20290;SDS011;10304;51.074;13.754;2023-10-09T11:53:39;17.83;;;12.70;;
20290;SDS011;10304;51.074;13.754;2023-10-09T11:56:11;19.20;;;12.38;;
20290;SDS011;10304;51.074;13.754;2023-10-09T11:58:43;23.40;;;12.25;;
20290;SDS011;10304;51.074;13.754;2023-10-09T12:01:11;20.27;;;12.63;;
20290;SDS011;10304;51.074;13.754;2023-10-09T12:03:49;20.67;;;14.05;;
20290;SDS011;10304;51.074;13.754;2023-10-09T12:06:17;20.45;;;13.93;;
20290;SDS011;10304;51.074;13.754;2023-10-09T12:08:48;19.90;;;12.90;;
20290;SDS011;10304;51.074;13.754;2023-10-09T12:11:15;20.38;;;12.77;;
20290;SDS011;10304;51.074;13.754;2023-10-09T12:13:50;18.25;;;11.75;;
20290;SDS011;10304;51.074;13.754;2023-10-09T12:16:23;19.88;;;11.60;;
20290;SDS011;10304;51.074;13.754;2023-10-09T12:18:55;15.02;;;10.70;;
20290;SDS011;10304;51.074;13.754;2023-10-09T12:21:22;17.23;;;10.98;;
20290;SDS011;10304;51.074;13.754;2023-10-09T12:23:49;18.70;;;10.82;;
20290;SDS011;10304;51.074;13.754;2023-10-09T12:26:17;18.13;;;11.45;;
20290;SDS011;10304;51.074;13.754;2023-10-09T12:28:44;17.33;;;10.45;;
20290;SDS011;10304;51.074;13.754;2023-10-09T12:31:13;18.95;;;11.10;;
20290;SDS011;10304;51.074;13.754;2023-10-09T12:33:46;17.98;;;11.23;;
20290;SDS011;10304;51.074;13.754;2023-10-09T12:36:14;17.05;;;9.65;;
20290;SDS011;10304;51.074;13.754;2023-10-09T12:38:47;16.25;;;9.85;;
20290;SDS011;10304;51.074;13.754;2023-10-09T12:41:20;15.98;;;9.95;;
20290;SDS011;10304;51.074;13.754;2023-10-09T12:43:55;15.80;;;9.88;;
20290;SDS011;10304;51.074;13.754;2023-10-09T12:46:24;13.88;;;10.10;;
20290;SDS011;10304;51.074;13.754;2023-10-09T12:48:52;17.92;;;10.73;;
20290;SDS011;10304;51.074;13.754;2023-10-09T12:51:22;16.52;;;10.45;;
20290;SDS011;10304;51.074;13.754;2023-10-09T12:53:56;14.70;;;9.13;;
20290;SDS011;10304;51.074;13.754;2023-10-09T12:56:24;14.90;;;10.35;;
20290;SDS011;10304;51.074;13.754;2023-10-09T12:59:04;14.55;;;10.65;;
20290;SDS011;10304;51.074;13.754;2023-10-09T13:01:33;17.30;;;10.50;;
20290;SDS011;10304;51.074;13.754;2023-10-09T13:04:12;16.25;;;10.40;;
20290;SDS011;10304;51.074;13.754;2023-10-09T13:06:43;14.93;;;10.50;;
20290;SDS011;10304;51.074;13.754;2023-10-09T13:09:11;17.77;;;10.15;;
20290;SDS011;10304;51.074;13.754;2023-10-09T13:11:40;19.08;;;11.05;;
20290;SDS011;10304;51.074;13.754;2023-10-09T13:14:09;16.42;;;10.55;;
20290;SDS011;10304;51.074;13.754;2023-10-09T13:16:48;18.40;;;10.95;;
20290;SDS011;10304;51.074;13.754;2023-10-09T13:19:19;17.23;;;10.68;;
20290;SDS011;10304;51.074;13.754;2023-10-09T13:21:50;18.95;;;11.35;;
20290;SDS011;10304;51.074;13.754;2023-10-09T13:24:17;15.40;;;10.77;;
20290;SDS011;10304;51.074;13.754;2023-10-09T13:26:50;16.67;;;10.38;;
20290;SDS011;10304;51.074;13.754;2023-10-09T13:29:24;13.93;;;10.55;;
20290;SDS011;10304;51.074;13.754;2023-10-09T13:31:51;13.88;;;10.15;;
20290;SDS011;10304;51.074;13.754;2023-10-09T13:34:25;14.48;;;10.32;;
20290;SDS011;10304;51.074;13.754;2023-10-09T13:36:54;13.50;;;10.38;;
20290;SDS011;10304;51.074;13.754;2023-10-09T13:39:25;12.63;;;9.98;;
20290;SDS011;10304;51.074;13.754;2023-10-09T13:41:56;12.77;;;9.80;;
20290;SDS011;10304;51.074;13.754;2023-10-09T13:44:27;16.15;;;11.02;;
20290;SDS011;10304;51.074;13.754;2023-10-09T13:46:55;12.93;;;9.73;;
20290;SDS011;10304;51.074;13.754;2023-10-09T13:49:22;12.18;;;9.93;;
20290;SDS011;10304;51.074;13.754;2023-10-09T13:51:49;14.98;;;9.70;;
20290;SDS011;10304;51.074;13.754;2023-10-09T13:54:16;17.50;;;11.00;;
20290;SDS011;10304;51.074;13.754;2023-10-09T13:57:01;18.15;;;10.82;;
20290;SDS011;10304;51.074;13.754;2023-10-09T13:59:34;16.70;;;10.35;;
20290;SDS011;10304;51.074;13.754;2023-10-09T14:02:02;14.15;;;9.10;;
20290;SDS011;10304;51.074;13.754;2023-10-09T14:04:36;17.50;;;9.55;;
20290;SDS011;10304;51.074;13.754;2023-10-09T14:07:03;13.75;;;9.57;;
20290;SDS011;10304;51.074;13.754;2023-10-09T14:09:33;12.68;;;9.85;;
20290;SDS011;10304;51.074;13.754;2023-10-09T14:12:11;13.40;;;10.63;;
20290;SDS011;10304;51.074;13.754;2023-10-09T14:14:41;17.80;;;10.50;;
20290;SDS011;10304;51.074;13.754;2023-10-09T14:17:16;15.27;;;11.77;;
20290;SDS011;10304;51.074;13.754;2023-10-09T14:19:50;12.40;;;10.38;;
20290;SDS011;10304;51.074;13.754;2023-10-09T14:22:25;13.52;;;10.48;;
20290;SDS011;10304;51.074;13.754;2023-10-09T14:24:53;13.35;;;10.20;;
20290;SDS011;10304;51.074;13.754;2023-10-09T14:27:25;11.40;;;9.88;;
20290;SDS011;10304;51.074;13.754;2023-10-09T14:29:55;12.65;;;10.05;;
20290;SDS011;10304;51.074;13.754;2023-10-09T14:32:25;12.13;;;9.93;;
20290;SDS011;10304;51.074;13.754;2023-10-09T14:34:56;14.98;;;10.48;;
20290;SDS011;10304;51.074;13.754;2023-10-09T14:37:29;16.23;;;10.25;;
20290;SDS011;10304;51.074;13.754;2023-10-09T14:39:57;17.85;;;11.48;;
20290;SDS011;10304;51.074;13.754;2023-10-09T14:42:25;14.18;;;10.80;;
20290;SDS011;10304;51.074;13.754;2023-10-09T14:44:54;15.40;;;9.23;;
20290;SDS011;10304;51.074;13.754;2023-10-09T14:47:22;12.57;;;10.15;;
20290;SDS011;10304;51.074;13.754;2023-10-09T14:49:49;14.75;;;9.02;;
20290;SDS011;10304;51.074;13.754;2023-10-09T14:52:16;16.60;;;9.90;;
20290;SDS011;10304;51.074;13.754;2023-10-09T14:54:43;13.95;;;10.23;;
20290;SDS011;10304;51.074;13.754;2023-10-09T14:57:14;12.25;;;7.05;;
20290;SDS011;10304;51.074;13.754;2023-10-09T14:59:44;10.80;;;6.78;;
20290;SDS011;10304;51.074;13.754;2023-10-09T15:02:12;9.27;;;6.70;;
20290;SDS011;10304;51.074;13.754;2023-10-09T15:04:39;7.90;;;5.95;;
20290;SDS011;10304;51.074;13.754;2023-10-09T15:07:06;6.68;;;5.18;;
20290;SDS011;10304;51.074;13.754;2023-10-09T15:09:34;8.57;;;5.38;;
20290;SDS011;10304;51.074;13.754;2023-10-09T15:12:03;5.78;;;5.03;;
20290;SDS011;10304;51.074;13.754;2023-10-09T15:14:33;4.93;;;4.43;;
20290;SDS011;10304;51.074;13.754;2023-10-09T15:17:00;6.55;;;4.38;;
20290;SDS011;10304;51.074;13.754;2023-10-09T15:19:28;6.85;;;4.60;;
20290;SDS011;10304;51.074;13.754;2023-10-09T15:21:56;5.47;;;4.70;;
20290;SDS011;10304;51.074;13.754;2023-10-09T15:24:25;4.82;;;4.30;;
20290;SDS011;10304;51.074;13.754;2023-10-09T15:26:54;5.45;;;4.47;;
20290;SDS011;10304;51.074;13.754;2023-10-09T15:29:24;5.82;;;4.22;;
20290;SDS011;10304;51.074;13.754;2023-10-09T15:31:57;5.45;;;3.78;;
20290;SDS011;10304;51.074;13.754;2023-10-09T15:34:31;6.70;;;4.10;;